Time;durP1;ratioP1;P1;durP2;ratioP2;P2;SDS_P1;SDS_P2;PMS_P1;PMS_P2;Temp;Humidity;BMP_temperature;BMP_pressure;BME280_temperature;BME280_humidity;BME280_pressure;Samples;Min_cycle;Max_cycle;Signal;HPM_P1;HPM_P2
2023/09/11 00:01:00;;;;;;;12.70;8.03;;;17.50;99.90;;;;;;5002809;28;20583;-77
2023/09/11 00:03:47;;;;;;;14.97;6.80;;;17.50;99.90;;;;;;5001876;28;20518;-75
2023/09/11 00:06:33;;;;;;;12.40;6.77;;;17.40;99.90;;;;;;4999946;28;20452;-76
2023/09/11 00:09:19;;;;;;;15.00;7.50;;;17.30;99.90;;;;;;5007055;28;20571;-77
2023/09/11 00:12:07;;;;;;;12.40;8.07;;;17.20;99.90;;;;;;5003022;28;20429;-76
2023/09/11 00:14:53;;;;;;;9.60;7.20;;;17.20;99.90;;;;;;5003536;28;20423;-77
2023/09/11 00:17:39;;;;;;;14.43;7.50;;;17.30;99.90;;;;;;5006534;28;20475;-77
2023/09/11 00:20:24;;;;;;;14.83;6.80;;;17.20;99.90;;;;;;5004740;28;20420;-77
2023/09/11 00:23:10;;;;;;;16.80;7.23;;;17.20;99.90;;;;;;5006369;28;20438;-77
2023/09/11 00:25:55;;;;;;;13.73;7.40;;;17.10;99.90;;;;;;4997744;28;20571;-77
2023/09/11 00:28:43;;;;;;;10.43;6.83;;;17.00;99.90;;;;;;5004883;28;20505;-77
2023/09/11 00:31:28;;;;;;;14.27;7.57;;;17.00;99.90;;;;;;5004755;28;20510;-77
2023/09/11 00:34:14;;;;;;;16.00;6.97;;;17.10;99.90;;;;;;5005714;28;20502;-77
2023/09/11 00:37:00;;;;;;;16.17;7.00;;;17.00;99.90;;;;;;5004505;28;20490;-77
2023/09/11 00:39:45;;;;;;;13.53;7.17;;;17.00;99.90;;;;;;5007047;28;20470;-77
2023/09/11 00:42:31;;;;;;;11.67;6.73;;;17.00;99.90;;;;;;4996964;28;20969;-77
2023/09/11 00:45:18;;;;;;;18.23;8.07;;;17.00;99.90;;;;;;5004958;28;20602;-76
2023/09/11 00:48:05;;;;;;;14.10;6.83;;;17.00;99.90;;;;;;4999111;28;20447;-77
2023/09/11 00:50:51;;;;;;;11.70;7.47;;;16.90;99.90;;;;;;4999410;28;20420;-76
2023/09/11 00:53:37;;;;;;;20.50;6.40;;;16.90;99.90;;;;;;4999021;28;20452;-76
2023/09/11 00:56:23;;;;;;;14.50;5.73;;;17.00;99.90;;;;;;5000931;28;20476;-77
2023/09/11 00:59:09;;;;;;;12.40;6.70;;;16.90;99.90;;;;;;4999513;28;20652;-77
2023/09/11 01:01:56;;;;;;;9.40;6.10;;;16.90;99.90;;;;;;5001936;28;20438;-77
2023/09/11 01:04:42;;;;;;;17.60;9.43;;;16.90;99.90;;;;;;4999523;28;20579;-77
2023/09/11 01:07:29;;;;;;;9.50;7.00;;;16.80;99.90;;;;;;5001638;28;20534;-77
2023/09/11 01:10:14;;;;;;;19.60;7.00;;;16.80;99.90;;;;;;5003202;28;20441;-77
2023/09/11 01:13:01;;;;;;;13.07;6.93;;;16.80;99.90;;;;;;5003706;28;20975;-77
2023/09/11 01:15:57;;;;;;;20.37;7.03;;;16.80;99.90;;;;;;5004227;28;21013;-77
2023/09/11 01:18:51;;;;;;;10.83;7.13;;;16.80;99.90;;;;;;5004286;28;20479;-77
2023/09/11 01:21:56;;;;;;;11.30;6.67;;;16.80;99.90;;;;;;5002555;28;20435;-77
2023/09/11 01:25:16;;;;;;;22.37;6.83;;;16.80;99.90;;;;;;5006763;28;20516;-77
2023/09/11 01:28:15;;;;;;;15.27;7.20;;;16.80;99.90;;;;;;4999374;28;20475;-77
2023/09/11 01:31:03;;;;;;;12.30;6.67;;;16.80;99.90;;;;;;5005231;28;20952;-76
2023/09/11 01:33:53;;;;;;;11.30;6.33;;;16.70;99.90;;;;;;5002530;28;20450;-77
2023/09/11 01:36:39;;;;;;;13.00;6.80;;;16.60;99.90;;;;;;5001977;28;20523;-77
2023/09/11 01:39:25;;;;;;;9.40;6.87;;;16.50;99.90;;;;;;5000407;28;20449;-76
2023/09/11 01:42:13;;;;;;;10.87;7.10;;;16.30;99.90;;;;;;5006649;28;20586;-77
2023/09/11 01:45:00;;;;;;;13.83;7.60;;;16.40;99.90;;;;;;4998402;28;20449;-77
2023/09/11 01:47:50;;;;;;;15.07;7.70;;;16.40;99.90;;;;;;5007189;28;20474;-77
2023/09/11 01:50:37;;;;;;;12.13;7.37;;;16.40;99.90;;;;;;5003906;28;20468;-77
2023/09/11 01:53:23;;;;;;;22.47;6.80;;;16.40;99.90;;;;;;5005298;28;20561;-77
2023/09/11 01:56:09;;;;;;;13.70;7.10;;;16.50;99.90;;;;;;5002934;28;20442;-77
2023/09/11 01:58:57;;;;;;;12.30;6.80;;;16.50;99.90;;;;;;5001933;28;20975;-76
2023/09/11 02:01:44;;;;;;;9.77;6.60;;;16.50;99.90;;;;;;5003267;28;20450;-77
2023/09/11 02:04:31;;;;;;;18.47;7.03;;;16.50;99.90;;;;;;5006184;28;20450;-77
2023/09/11 02:07:16;;;;;;;10.80;6.80;;;16.60;99.90;;;;;;5000997;28;20922;-77
2023/09/11 02:10:03;;;;;;;9.53;6.30;;;16.60;99.90;;;;;;5004781;28;20517;-77
2023/09/11 02:12:48;;;;;;;12.40;6.77;;;16.50;99.90;;;;;;5004009;28;20450;-77
2023/09/11 02:15:34;;;;;;;13.70;7.10;;;16.50;99.90;;;;;;5003918;28;20442;-78
2023/09/11 02:18:19;;;;;;;9.70;6.57;;;16.40;99.90;;;;;;4997757;28;21010;-77
2023/09/11 02:21:07;;;;;;;15.93;7.70;;;16.30;99.90;;;;;;5000399;28;21457;-77
2023/09/11 02:23:52;;;;;;;16.03;7.40;;;16.30;99.90;;;;;;5001522;28;20462;-77
2023/09/11 02:26:38;;;;;;;15.67;7.80;;;16.40;99.90;;;;;;5003919;28;20470;-77
2023/09/11 02:29:24;;;;;;;14.47;7.27;;;16.40;99.90;;;;;;5004100;28;20444;-77
2023/09/11 02:32:09;;;;;;;16.70;7.03;;;16.30;99.90;;;;;;5004566;28;20471;-77
2023/09/11 02:34:55;;;;;;;10.77;6.40;;;16.40;99.90;;;;;;5002143;28;20475;-77
2023/09/11 02:37:42;;;;;;;15.33;7.00;;;16.40;99.90;;;;;;4981529;23;1163463;-71
2023/09/11 02:40:28;;;;;;;19.53;7.77;;;16.30;99.90;;;;;;5017483;28;20293;-71
2023/09/11 02:43:14;;;;;;;13.00;6.90;;;16.30;99.90;;;;;;5017202;28;20584;-71
2023/09/11 02:46:00;;;;;;;10.93;6.43;;;16.10;99.90;;;;;;5017404;28;20458;-71
2023/09/11 02:48:46;;;;;;;18.50;6.47;;;16.10;99.90;;;;;;5012039;28;20437;-71
2023/09/11 02:51:31;;;;;;;13.47;6.70;;;16.10;99.90;;;;;;5004834;28;21017;-71
2023/09/11 02:54:19;;;;;;;12.67;6.70;;;16.10;99.90;;;;;;5006712;28;20421;-71
2023/09/11 02:57:05;;;;;;;12.47;6.27;;;16.00;99.90;;;;;;5006115;28;20450;-71
2023/09/11 02:59:54;;;;;;;11.70;6.67;;;16.00;99.90;;;;;;5005327;28;20462;-71
2023/09/11 03:02:40;;;;;;;12.80;6.50;;;16.00;99.90;;;;;;5004126;28;20434;-71
2023/09/11 03:05:25;;;;;;;13.20;6.70;;;16.00;99.90;;;;;;5006520;28;21056;-71
2023/09/11 03:08:12;;;;;;;16.10;6.50;;;15.90;99.90;;;;;;5006178;28;20463;-71
2023/09/11 03:11:06;;;;;;;18.77;6.57;;;15.90;99.90;;;;;;5006220;28;20553;-71
2023/09/11 03:13:51;;;;;;;12.73;7.23;;;16.00;99.90;;;;;;5009442;28;20888;-71
2023/09/11 03:16:37;;;;;;;11.07;6.60;;;16.00;99.90;;;;;;5007824;28;20485;-71
2023/09/11 03:19:23;;;;;;;15.27;6.83;;;16.00;99.90;;;;;;5008366;28;20907;-71
2023/09/11 03:22:08;;;;;;;11.30;5.87;;;16.10;99.90;;;;;;5002280;28;20464;-71
2023/09/11 03:24:55;;;;;;;9.50;6.47;;;16.10;99.90;;;;;;5003750;28;20549;-71
2023/09/11 03:27:42;;;;;;;12.03;6.30;;;16.10;99.90;;;;;;5005919;28;20948;-71
2023/09/11 03:30:27;;;;;;;8.17;6.43;;;16.00;99.90;;;;;;5006378;28;20863;-71
2023/09/11 03:33:13;;;;;;;10.63;6.10;;;16.00;99.90;;;;;;5003939;28;20422;-71
2023/09/11 03:35:59;;;;;;;10.30;5.90;;;15.90;99.90;;;;;;5004846;28;20553;-71
2023/09/11 03:38:45;;;;;;;12.70;6.10;;;15.90;99.90;;;;;;5000836;28;20804;-71
2023/09/11 03:41:30;;;;;;;10.43;5.90;;;15.80;99.90;;;;;;5006932;28;20943;-71
2023/09/11 03:44:18;;;;;;;11.97;6.70;;;15.70;99.90;;;;;;5003409;28;20454;-71
2023/09/11 03:47:03;;;;;;;9.93;5.20;;;15.70;99.90;;;;;;5007180;28;20561;-71
2023/09/11 03:49:49;;;;;;;15.27;7.30;;;15.70;99.90;;;;;;5002769;28;20469;-71
2023/09/11 03:52:35;;;;;;;13.90;6.97;;;15.60;99.90;;;;;;5004627;28;20493;-71
2023/09/11 03:55:21;;;;;;;14.17;7.70;;;15.60;99.90;;;;;;5006395;28;20544;-71
2023/09/11 03:58:06;;;;;;;15.33;7.20;;;15.50;99.90;;;;;;5001724;28;20520;-71
2023/09/11 04:00:54;;;;;;;11.77;6.83;;;15.50;99.90;;;;;;5006717;28;20473;-71
2023/09/11 04:03:41;;;;;;;11.43;6.97;;;15.50;99.90;;;;;;5001427;28;20649;-71
2023/09/11 04:06:27;;;;;;;9.77;6.03;;;15.50;99.90;;;;;;5004072;28;20437;-71
2023/09/11 04:09:13;;;;;;;6.80;6.10;;;15.50;99.90;;;;;;5005779;28;20466;-71
2023/09/11 04:11:58;;;;;;;9.80;6.67;;;15.40;99.90;;;;;;5003446;28;20919;-71
2023/09/11 04:14:44;;;;;;;12.63;7.80;;;15.40;99.90;;;;;;5004535;28;20449;-71
2023/09/11 04:17:31;;;;;;;12.17;7.63;;;15.40;99.90;;;;;;5004625;28;20463;-71
2023/09/11 04:20:17;;;;;;;10.87;7.40;;;15.30;99.90;;;;;;5002296;28;20481;-71
2023/09/11 04:23:03;;;;;;;16.40;6.57;;;15.40;99.90;;;;;;5001952;28;20505;-71
2023/09/11 04:25:55;;;;;;;10.73;6.97;;;15.40;99.90;;;;;;5005280;28;20450;-71
2023/09/11 04:28:40;;;;;;;13.33;6.47;;;15.40;99.90;;;;;;5005302;28;20465;-69
2023/09/11 04:31:26;;;;;;;8.73;6.30;;;15.50;99.90;;;;;;5004792;28;20514;-69
2023/09/11 04:34:13;;;;;;;16.30;6.83;;;15.50;99.90;;;;;;5004160;28;20429;-69
2023/09/11 04:36:59;;;;;;;7.87;6.33;;;15.50;99.90;;;;;;4999127;28;20821;-69
2023/09/11 04:39:45;;;;;;;7.80;5.73;;;15.50;99.90;;;;;;5007638;28;20579;-69
2023/09/11 04:42:30;;;;;;;10.43;6.70;;;15.50;99.90;;;;;;5006042;28;20453;-69
2023/09/11 04:45:16;;;;;;;7.20;5.90;;;15.50;99.90;;;;;;5006691;28;20416;-69
2023/09/11 04:48:02;;;;;;;12.27;6.30;;;15.40;99.90;;;;;;5006050;28;20517;-69
2023/09/11 04:50:49;;;;;;;25.63;8.40;;;15.40;99.90;;;;;;5010274;28;20445;-69
2023/09/11 04:53:34;;;;;;;7.83;6.40;;;15.30;99.90;;;;;;5010490;28;21014;-69
2023/09/11 04:56:20;;;;;;;20.93;7.70;;;15.20;99.90;;;;;;5009662;28;20443;-69
2023/09/11 04:59:06;;;;;;;9.73;5.37;;;15.20;99.90;;;;;;5008014;28;20988;-69
2023/09/11 05:01:52;;;;;;;10.13;5.40;;;15.20;99.90;;;;;;5008512;28;20553;-69
2023/09/11 05:04:39;;;;;;;9.30;5.87;;;15.20;99.90;;;;;;5007940;28;20449;-69
2023/09/11 05:07:26;;;;;;;11.33;7.90;;;15.10;99.90;;;;;;5009104;28;20969;-69
2023/09/11 05:10:14;;;;;;;16.23;6.23;;;15.10;99.90;;;;;;5008241;28;20462;-69
2023/09/11 05:12:59;;;;;;;10.20;6.87;;;15.10;99.90;;;;;;5008558;28;20424;-68
2023/09/11 05:15:48;;;;;;;9.70;6.40;;;15.10;99.90;;;;;;5007718;28;20451;-69
2023/09/11 05:18:33;;;;;;;11.60;6.00;;;15.10;99.90;;;;;;5008711;28;20560;-68
2023/09/11 05:21:18;;;;;;;8.50;5.50;;;15.20;99.90;;;;;;5008802;28;20474;-68
2023/09/11 05:24:06;;;;;;;7.70;6.13;;;15.20;99.90;;;;;;5008508;28;20450;-69
2023/09/11 05:26:51;;;;;;;9.50;5.67;;;15.30;99.90;;;;;;5006920;28;20806;-69
2023/09/11 05:29:37;;;;;;;12.67;6.70;;;15.40;99.90;;;;;;5002961;28;20426;-69
2023/09/11 05:32:23;;;;;;;9.10;6.00;;;15.50;99.90;;;;;;5006904;28;20733;-69
2023/09/11 05:35:09;;;;;;;14.30;6.17;;;15.50;99.90;;;;;;5007547;28;20463;-69
2023/09/11 05:37:54;;;;;;;9.67;6.50;;;15.40;99.90;;;;;;5007953;28;20837;-69
2023/09/11 05:40:41;;;;;;;13.93;5.90;;;15.50;99.90;;;;;;5008283;28;21162;-69
2023/09/11 05:43:27;;;;;;;14.50;6.80;;;15.50;99.90;;;;;;5007766;28;20439;-69
2023/09/11 05:46:13;;;;;;;10.67;6.30;;;15.60;99.90;;;;;;5009446;28;20450;-69
2023/09/11 05:48:59;;;;;;;16.70;7.27;;;15.60;99.90;;;;;;5008399;28;21000;-69
2023/09/11 05:51:44;;;;;;;17.67;6.20;;;15.60;99.90;;;;;;5002752;28;20930;-69
2023/09/11 05:54:30;;;;;;;9.93;7.10;;;15.50;99.90;;;;;;5007116;28;20445;-69
2023/09/11 05:57:17;;;;;;;11.93;7.30;;;15.30;99.90;;;;;;5006851;28;20449;-69
2023/09/11 06:00:09;;;;;;;11.33;7.60;;;15.20;99.90;;;;;;5006338;28;20478;-69
2023/09/11 06:02:55;;;;;;;10.20;7.27;;;15.40;99.90;;;;;;5007604;28;21044;-69
2023/09/11 06:05:41;;;;;;;10.80;7.30;;;15.60;99.90;;;;;;5008987;28;20412;-69
2023/09/11 06:08:26;;;;;;;15.83;7.10;;;15.70;99.90;;;;;;5009095;28;20978;-69
2023/09/11 06:11:12;;;;;;;12.63;6.50;;;15.90;99.90;;;;;;5007598;28;20545;-69
2023/09/11 06:13:59;;;;;;;16.00;7.30;;;16.00;99.90;;;;;;5004800;28;20940;-68
2023/09/11 06:16:44;;;;;;;8.60;6.10;;;16.10;99.90;;;;;;5006937;28;20596;-69
2023/09/11 06:19:30;;;;;;;9.47;6.73;;;16.20;99.90;;;;;;5007484;28;20761;-69
2023/09/11 06:22:16;;;;;;;11.30;7.63;;;16.30;99.90;;;;;;5007217;28;20450;-69
2023/09/11 06:25:02;;;;;;;16.93;7.37;;;16.40;99.90;;;;;;5008435;28;20421;-69
2023/09/11 06:27:48;;;;;;;8.23;6.40;;;16.40;99.90;;;;;;5006961;28;20549;-69
2023/09/11 06:30:35;;;;;;;7.57;6.10;;;16.40;99.90;;;;;;5009098;28;20453;-69
2023/09/11 06:33:21;;;;;;;13.43;7.07;;;16.50;99.90;;;;;;5004767;28;20417;-69
2023/09/11 06:36:07;;;;;;;9.83;6.00;;;16.60;99.90;;;;;;5005461;28;20801;-69
2023/09/11 06:38:52;;;;;;;14.90;7.47;;;16.70;99.90;;;;;;5006679;28;20453;-69
2023/09/11 06:41:38;;;;;;;10.73;6.60;;;16.70;99.90;;;;;;5006466;28;20444;-69
2023/09/11 06:44:24;;;;;;;9.97;7.43;;;16.80;99.90;;;;;;5006351;28;20502;-69
2023/09/11 06:47:12;;;;;;;12.77;8.07;;;16.90;99.90;;;;;;5008425;28;20421;-69
2023/09/11 06:49:58;;;;;;;11.00;6.90;;;16.90;99.90;;;;;;5003728;28;20453;-69
2023/09/11 06:52:43;;;;;;;11.10;6.80;;;16.90;99.90;;;;;;5003920;28;20797;-69
2023/09/11 06:55:29;;;;;;;10.33;6.83;;;16.90;99.90;;;;;;5004604;28;20502;-69
2023/09/11 06:58:15;;;;;;;15.17;8.20;;;17.00;99.90;;;;;;4998892;28;20467;-69
2023/09/11 07:01:02;;;;;;;13.93;8.10;;;17.10;99.90;;;;;;5003792;28;20487;-69
2023/09/11 07:03:49;;;;;;;9.33;8.10;;;17.20;99.90;;;;;;5002327;28;20959;-69
2023/09/11 07:06:35;;;;;;;8.50;7.40;;;17.20;99.90;;;;;;5006138;28;22064;-69
2023/09/11 07:09:20;;;;;;;17.43;8.90;;;17.40;99.90;;;;;;5005453;28;20475;-69
2023/09/11 07:12:07;;;;;;;11.33;8.37;;;17.50;99.90;;;;;;5006408;28;20422;-69
2023/09/11 07:14:56;;;;;;;12.40;8.60;;;17.50;99.90;;;;;;5003382;28;20773;-69
2023/09/11 07:17:41;;;;;;;9.57;7.60;;;17.80;99.90;;;;;;5004042;28;20482;-69
2023/09/11 07:20:28;;;;;;;14.80;8.00;;;17.90;99.90;;;;;;5004892;28;20530;-69
2023/09/11 07:23:14;;;;;;;12.30;8.30;;;17.90;99.90;;;;;;5003454;28;20569;-69
2023/09/11 07:26:00;;;;;;;10.03;7.87;;;18.00;99.90;;;;;;5006170;28;20830;-69
2023/09/11 07:28:56;;;;;;;17.73;7.50;;;18.10;99.90;;;;;;5000656;28;20467;-69
2023/09/11 07:31:41;;;;;;;18.30;8.00;;;18.30;99.90;;;;;;5000434;28;20499;-69
2023/09/11 07:34:27;;;;;;;12.07;8.33;;;18.40;99.90;;;;;;5005936;28;20445;-69
2023/09/11 07:37:14;;;;;;;8.97;6.60;;;18.60;99.90;;;;;;5004573;28;20445;-72
2023/09/11 07:40:00;;;;;;;13.30;7.77;;;18.80;99.90;;;;;;5003237;28;20447;-72
2023/09/11 07:42:46;;;;;;;9.20;7.87;;;18.90;99.90;;;;;;5001920;28;20943;-70
2023/09/11 07:45:32;;;;;;;17.07;8.23;;;19.00;99.90;;;;;;5003631;28;20964;-70
2023/09/11 07:48:17;;;;;;;12.70;8.83;;;19.20;99.90;;;;;;5002530;28;20497;-70
2023/09/11 07:51:03;;;;;;;12.10;8.60;;;19.30;99.90;;;;;;5000310;28;20460;-70
2023/09/11 07:53:50;;;;;;;24.60;7.80;;;19.50;99.90;;;;;;5006979;28;20441;-70
2023/09/11 07:56:36;;;;;;;11.20;6.83;;;19.70;99.90;;;;;;5005631;28;20452;-70
2023/09/11 07:59:22;;;;;;;11.80;7.90;;;19.80;99.90;;;;;;5000236;28;20643;-70
2023/09/11 08:02:07;;;;;;;10.27;7.83;;;20.00;99.90;;;;;;5002643;28;21285;-70
2023/09/11 08:04:53;;;;;;;12.10;7.50;;;20.10;99.90;;;;;;5005664;28;20441;-70
2023/09/11 08:07:38;;;;;;;12.20;7.20;;;20.10;99.90;;;;;;5006100;28;20472;-70
2023/09/11 08:10:28;;;;;;;13.00;7.30;;;20.30;99.90;;;;;;5007023;28;20441;-70
2023/09/11 08:13:13;;;;;;;14.47;7.90;;;20.40;99.90;;;;;;5005712;28;20579;-70
2023/09/11 08:15:59;;;;;;;11.10;6.63;;;20.40;99.90;;;;;;5004912;28;20452;-70
2023/09/11 08:18:45;;;;;;;16.40;7.23;;;20.50;99.90;;;;;;5004686;28;20551;-70
2023/09/11 08:21:30;;;;;;;12.17;7.33;;;20.50;99.90;;;;;;5000524;28;20947;-70
2023/09/11 08:24:16;;;;;;;12.97;7.50;;;20.60;99.90;;;;;;5004253;28;20442;-70
2023/09/11 08:27:03;;;;;;;13.60;7.50;;;20.80;99.90;;;;;;5003529;28;20552;-69
2023/09/11 08:29:49;;;;;;;15.30;7.53;;;20.90;99.90;;;;;;5006509;28;20441;-69
2023/09/11 08:32:35;;;;;;;10.70;6.50;;;21.10;99.90;;;;;;5003464;28;21105;-69
2023/09/11 08:35:20;;;;;;;13.37;7.07;;;21.20;99.90;;;;;;5000443;28;20444;-69
2023/09/11 08:38:06;;;;;;;14.30;6.67;;;21.30;99.90;;;;;;5015345;23;22551;-91
2023/09/11 08:40:52;;;;;;;9.93;7.60;;;21.40;99.90;;;;;;5026427;28;20447;-91
2023/09/11 08:43:39;;;;;;;11.37;7.60;;;21.50;99.90;;;;;;5019513;28;20415;-90
2023/09/11 08:46:31;;;;;;;19.00;7.83;;;21.70;99.90;;;;;;5025659;28;20452;-88
2023/09/11 08:49:21;;;;;;;12.50;7.43;;;21.80;99.90;;;;;;5010117;28;20522;-89
2023/09/11 08:52:10;;;;;;;12.40;7.50;;;22.00;99.90;;;;;;5006637;28;20508;-88
2023/09/11 08:55:00;;;;;;;11.47;7.90;;;22.10;99.90;;;;;;5002314;28;20450;-88
2023/09/11 08:57:47;;;;;;;18.40;8.70;;;22.30;99.90;;;;;;5003103;28;20683;-89
2023/09/11 09:00:34;;;;;;;10.27;7.33;;;22.40;99.90;;;;;;5004182;28;20449;-89
2023/09/11 09:03:21;;;;;;;9.93;7.77;;;22.60;99.90;;;;;;5005677;28;20437;-89
2023/09/11 09:06:07;;;;;;;16.73;7.90;;;22.80;99.90;;;;;;5008856;28;20445;-89
2023/09/11 09:08:54;;;;;;;18.83;7.53;;;22.90;99.90;;;;;;5006481;28;20596;-89
2023/09/11 09:11:45;;;;;;;11.00;7.93;;;23.10;99.90;;;;;;5005876;28;20446;-88
2023/09/11 09:14:33;;;;;;;13.43;7.53;;;23.20;99.90;;;;;;5006453;28;20485;-89
2023/09/11 09:17:19;;;;;;;14.17;7.93;;;23.30;99.90;;;;;;5002589;28;20576;-88
2023/09/11 09:20:06;;;;;;;15.60;9.10;;;23.40;99.90;;;;;;5008475;28;21097;-88
2023/09/11 09:22:54;;;;;;;16.50;8.00;;;23.50;99.90;;;;;;5005287;28;20472;-89
2023/09/11 09:25:39;;;;;;;12.20;8.00;;;23.60;99.90;;;;;;5006974;28;20445;-90
2023/09/11 09:28:29;;;;;;;9.50;6.63;;;23.80;99.90;;;;;;5004398;28;20832;-89
2023/09/11 09:31:23;;;;;;;11.83;8.00;;;23.80;99.90;;;;;;5007732;28;20438;-89
2023/09/11 09:34:10;;;;;;;16.27;8.80;;;23.90;99.90;;;;;;5010804;28;20422;-89
2023/09/11 09:36:56;;;;;;;10.30;7.60;;;24.10;99.90;;;;;;5009844;28;20468;-89
2023/09/11 09:39:43;;;;;;;14.33;8.20;;;24.20;99.90;;;;;;5007315;28;20462;-90
2023/09/11 09:42:40;;;;;;;11.90;8.43;;;24.40;99.90;;;;;;5004465;28;21039;-89
2023/09/11 09:45:29;;;;;;;9.90;7.80;;;24.50;99.90;;;;;;5007139;28;21055;-90
2023/09/11 09:48:18;;;;;;;12.80;7.43;;;24.60;99.90;;;;;;5011047;28;20563;-90
2023/09/11 09:51:05;;;;;;;16.40;8.37;;;24.70;99.90;;;;;;5008165;28;20576;-89
2023/09/11 09:53:54;;;;;;;19.63;8.80;;;24.80;99.90;;;;;;5010924;28;20546;-90
2023/09/11 09:56:41;;;;;;;16.83;8.30;;;24.90;99.90;;;;;;5007916;28;20471;-89
2023/09/11 09:59:28;;;;;;;13.90;8.87;;;25.00;99.60;;;;;;5007641;28;20558;-90
2023/09/11 10:02:14;;;;;;;12.63;9.23;;;25.00;95.00;;;;;;5010320;28;20503;-89
2023/09/11 10:05:04;;;;;;;15.13;10.50;;;25.20;95.40;;;;;;5012052;28;20439;-90
2023/09/11 10:07:52;;;;;;;13.53;7.97;;;25.30;96.90;;;;;;5011374;28;20471;-90
2023/09/11 10:10:38;;;;;;;14.97;8.70;;;25.50;93.20;;;;;;5006614;28;20446;-90
2023/09/11 10:13:27;;;;;;;12.93;8.70;;;25.50;91.60;;;;;;5011767;28;20455;-89
2023/09/11 10:16:13;;;;;;;12.80;8.40;;;25.60;88.70;;;;;;5009632;28;20565;-90
2023/09/11 10:19:00;;;;;;;13.17;8.47;;;25.70;87.70;;;;;;5013605;28;20461;-89
2023/09/11 10:21:46;;;;;;;14.43;9.43;;;25.80;90.00;;;;;;5011862;28;20470;-89
2023/09/11 10:24:33;;;;;;;19.20;8.47;;;25.80;77.60;;;;;;5011389;28;20472;-89
2023/09/11 10:27:19;;;;;;;11.27;9.00;;;25.80;78.80;;;;;;5007952;28;20458;-90
2023/09/11 10:30:07;;;;;;;10.60;8.30;;;26.00;81.80;;;;;;5010590;28;20453;-89
2023/09/11 10:33:00;;;;;;;14.33;7.93;;;26.10;77.10;;;;;;5007272;28;20447;-89
2023/09/11 10:35:48;;;;;;;17.37;7.50;;;26.30;79.50;;;;;;5009097;28;20511;-89
2023/09/11 10:38:36;;;;;;;18.03;8.60;;;26.30;76.70;;;;;;5010881;28;20566;-89
2023/09/11 10:41:24;;;;;;;10.30;7.63;;;26.40;73.20;;;;;;5008621;28;20472;-89
2023/09/11 10:44:10;;;;;;;11.73;7.33;;;26.50;79.60;;;;;;5007378;28;20572;-90
2023/09/11 10:46:55;;;;;;;15.13;7.20;;;26.60;74.70;;;;;;5010018;28;21371;-89
2023/09/11 10:49:42;;;;;;;10.30;6.70;;;26.70;77.00;;;;;;5007782;28;20447;-90
2023/09/11 10:52:28;;;;;;;12.00;6.93;;;26.80;70.90;;;;;;5008531;28;21022;-90
2023/09/11 10:55:15;;;;;;;18.97;8.63;;;26.90;72.40;;;;;;5009558;28;20468;-89
2023/09/11 10:58:04;;;;;;;14.80;7.63;;;27.00;72.00;;;;;;5007798;28;20488;-90
2023/09/11 11:00:54;;;;;;;11.00;6.90;;;27.10;70.70;;;;;;5007939;28;20446;-90
2023/09/11 11:03:42;;;;;;;20.00;7.80;;;27.20;68.10;;;;;;5006588;28;20836;-89
2023/09/11 11:06:28;;;;;;;15.80;7.27;;;27.30;68.20;;;;;;5009038;28;20468;-90
2023/09/11 11:09:41;;;;;;;11.30;7.20;;;27.40;63.50;;;;;;5008846;28;20957;-90
2023/09/11 11:12:32;;;;;;;19.90;7.70;;;27.40;49.10;;;;;;4971897;28;20479;-90
2023/09/11 11:15:21;;;;;;;18.83;8.20;;;27.40;58.10;;;;;;5009124;28;21226;-89
2023/09/11 11:18:09;;;;;;;20.73;7.17;;;27.50;50.40;;;;;;5006779;28;21081;-90
2023/09/11 11:21:05;;;;;;;17.20;8.00;;;27.50;49.30;;;;;;5010599;28;20441;-89
2023/09/11 11:23:55;;;;;;;10.93;6.93;;;27.50;48.20;;;;;;5005843;28;20830;-89
2023/09/11 11:26:41;;;;;;;13.13;7.40;;;27.60;53.20;;;;;;5010023;28;20472;-90
2023/09/11 11:29:27;;;;;;;11.77;6.70;;;27.70;52.60;;;;;;5008757;28;20618;-89
2023/09/11 11:32:17;;;;;;;15.83;7.60;;;27.70;51.80;;;;;;5009820;28;20449;-90
2023/09/11 11:35:07;;;;;;;13.70;7.17;;;27.70;43.30;;;;;;5008453;28;20617;-89
2023/09/11 11:37:53;;;;;;;18.90;6.50;;;27.70;33.20;;;;;;5009041;28;20728;-89
2023/09/11 11:40:40;;;;;;;12.57;6.27;;;27.80;34.80;;;;;;5009271;28;20441;-90
2023/09/11 11:43:27;;;;;;;14.80;7.20;;;27.80;41.20;;;;;;5007201;28;20554;-90
2023/09/11 11:46:13;;;;;;;10.60;5.63;;;27.90;44.40;;;;;;5007184;28;20454;-91
2023/09/11 11:49:00;;;;;;;21.70;6.87;;;27.90;40.20;;;;;;5010603;28;20962;-90
2023/09/11 11:51:47;;;;;;;13.00;6.00;;;27.90;38.70;;;;;;5008798;28;20448;-89
2023/09/11 11:54:34;;;;;;;14.93;7.77;;;28.00;33.00;;;;;;5011633;28;20567;-90
2023/09/11 11:57:21;;;;;;;21.80;7.20;;;28.00;33.50;;;;;;5010446;28;20838;-90
2023/09/11 12:00:11;;;;;;;23.43;7.37;;;28.00;32.20;;;;;;5005660;28;20460;-90
2023/09/11 12:03:03;;;;;;;15.83;6.60;;;28.10;31.20;;;;;;5009512;28;20827;-90
2023/09/11 12:05:51;;;;;;;14.80;7.20;;;28.20;28.90;;;;;;5008322;28;20503;-91
2023/09/11 12:08:41;;;;;;;24.33;6.50;;;28.30;29.50;;;;;;5005431;28;20453;-90
2023/09/11 12:11:27;;;;;;;20.63;6.50;;;28.40;27.70;;;;;;5005971;28;20975;-89
2023/09/11 12:14:14;;;;;;;22.43;7.13;;;28.40;25.90;;;;;;5007064;28;20449;-90
2023/09/11 12:17:01;;;;;;;21.83;7.63;;;28.50;25.80;;;;;;5008485;28;20466;-91
2023/09/11 12:19:47;;;;;;;18.73;5.90;;;28.50;27.30;;;;;;5007093;28;20448;-90
2023/09/11 12:22:34;;;;;;;29.57;6.20;;;28.50;22.80;;;;;;5007693;28;20551;-92
2023/09/11 12:25:20;;;;;;;22.97;5.77;;;28.40;21.00;;;;;;5006383;28;20451;-91
2023/09/11 12:28:06;;;;;;;20.10;6.60;;;28.50;23.10;;;;;;5006844;28;20466;-91
2023/09/11 12:30:53;;;;;;;19.77;5.80;;;28.60;24.00;;;;;;5006500;28;20441;-90
2023/09/11 12:33:38;;;;;;;18.63;5.30;;;28.70;22.50;;;;;;5005855;28;20460;-92
2023/09/11 12:36:24;;;;;;;17.80;5.90;;;28.80;23.60;;;;;;5002152;28;20608;-91
2023/09/11 12:39:12;;;;;;;21.47;5.63;;;28.90;18.50;;;;;;5004265;28;20843;-90
2023/09/11 12:41:58;;;;;;;18.90;5.53;;;28.90;19.40;;;;;;5004331;28;20532;-90
2023/09/11 12:44:44;;;;;;;23.57;6.63;;;29.10;20.60;;;;;;5007721;28;20445;-89
2023/09/11 12:47:30;;;;;;;24.50;6.67;;;29.20;20.10;;;;;;5007904;28;20857;-89
2023/09/11 12:50:16;;;;;;;33.03;6.80;;;29.30;19.60;;;;;;5006805;28;20824;-90
2023/09/11 12:53:03;;;;;;;26.37;6.63;;;29.40;20.90;;;;;;5009637;28;20448;-89
2023/09/11 12:55:51;;;;;;;25.83;6.40;;;29.60;17.70;;;;;;5008786;28;20442;-89
2023/09/11 12:58:38;;;;;;;24.40;5.93;;;29.80;17.60;;;;;;5008537;28;20461;-89
2023/09/11 13:01:25;;;;;;;20.87;5.57;;;30.00;18.20;;;;;;5009513;28;20453;-89
2023/09/11 13:04:10;;;;;;;15.37;6.00;;;29.90;15.10;;;;;;5011643;28;20490;-89
2023/09/11 13:06:56;;;;;;;22.07;6.20;;;30.00;16.30;;;;;;5008121;28;20473;-89
2023/09/11 13:09:42;;;;;;;22.20;6.10;;;30.30;17.80;;;;;;5009965;28;20949;-89
2023/09/11 13:12:29;;;;;;;20.33;6.30;;;30.40;19.50;;;;;;5012556;28;20970;-90
2023/09/11 13:15:15;;;;;;;30.30;5.30;;;30.50;18.10;;;;;;5010819;28;20439;-90
2023/09/11 13:18:02;;;;;;;24.30;6.37;;;30.70;18.50;;;;;;5007598;28;20476;-89
2023/09/11 13:20:47;;;;;;;19.03;6.67;;;30.70;19.60;;;;;;5008050;28;20446;-89
2023/09/11 13:23:33;;;;;;;37.47;6.00;;;30.80;17.90;;;;;;5012748;28;20546;-90
2023/09/11 13:26:19;;;;;;;22.27;6.33;;;30.80;18.70;;;;;;5010666;28;20496;-90
2023/09/11 13:29:07;;;;;;;22.20;5.77;;;30.70;15.90;;;;;;5006707;28;20507;-89
2023/09/11 13:31:55;;;;;;;20.50;6.20;;;30.70;17.60;;;;;;5008965;28;20447;-89
2023/09/11 13:34:40;;;;;;;14.60;5.60;;;30.70;16.30;;;;;;5012097;28;20447;-89
2023/09/11 13:37:26;;;;;;;26.67;6.30;;;30.80;17.20;;;;;;5007839;28;20480;-90
2023/09/11 13:40:12;;;;;;;16.93;5.37;;;31.00;17.80;;;;;;5007614;28;20455;-90
2023/09/11 13:42:58;;;;;;;17.03;5.13;;;31.20;17.40;;;;;;5007114;28;20461;-89
2023/09/11 13:45:45;;;;;;;19.20;5.60;;;31.20;14.80;;;;;;5005957;28;20841;-89
2023/09/11 13:48:38;;;;;;;26.30;5.90;;;31.00;13.70;;;;;;5008869;28;20463;-90
2023/09/11 13:51:26;;;;;;;14.10;5.27;;;31.10;14.70;;;;;;5010334;28;20490;-89
2023/09/11 13:54:12;;;;;;;19.13;6.00;;;31.10;15.40;;;;;;5010111;28;20559;-89
2023/09/11 13:56:57;;;;;;;24.10;5.80;;;31.30;20.00;;;;;;5006713;28;20615;-90
2023/09/11 13:59:42;;;;;;;21.43;6.43;;;31.50;20.40;;;;;;5008652;28;20439;-90
2023/09/11 14:02:30;;;;;;;15.80;5.10;;;31.60;19.70;;;;;;5007374;28;21488;-89
2023/09/11 14:05:15;;;;;;;14.27;6.37;;;31.50;21.30;;;;;;5010498;28;20442;-90
2023/09/11 14:08:01;;;;;;;19.67;6.20;;;31.60;20.90;;;;;;5011180;28;20519;-90
2023/09/11 14:10:47;;;;;;;16.63;5.60;;;31.60;16.60;;;;;;5011996;28;20476;-89
2023/09/11 14:13:33;;;;;;;23.17;6.00;;;31.40;20.70;;;;;;5010926;28;20708;-90
2023/09/11 14:16:18;;;;;;;14.03;5.50;;;31.30;20.40;;;;;;5009810;28;20450;-90
2023/09/11 14:19:07;;;;;;;15.60;5.93;;;31.00;15.80;;;;;;5005199;28;21037;-89